createdAt,value
2018-03-07T02:51:48.091Z,63.63
2018-03-07T02:54:15.754Z,63.60
2018-03-07T02:56:43.419Z,56.10
2018-03-07T02:59:11.127Z,63.73
2018-03-07T03:01:38.806Z,62.17
2018-03-07T03:04:07.326Z,61.77
2018-03-07T03:06:34.982Z,66.20
2018-03-07T03:09:02.709Z,52.23
2018-03-07T03:11:31.147Z,54.93
2018-03-07T03:13:58.854Z,60.60
2018-03-07T03:16:27.286Z,61.73
2018-03-07T03:18:55.171Z,54.77
2018-03-07T03:21:22.839Z,61.10
2018-03-07T03:23:50.550Z,56.87
2018-03-07T03:26:18.213Z,58.93
2018-03-07T03:28:45.915Z,54.83
2018-03-07T03:31:13.568Z,50.40
2018-03-07T03:33:41.266Z,51.53
2018-03-07T03:36:08.918Z,59.33
2018-03-07T03:38:37.391Z,55.17
2018-03-07T03:41:05.815Z,57.07
2018-03-07T03:43:33.466Z,48.87
2018-03-07T03:46:01.162Z,51.10
2018-03-07T03:48:28.819Z,52.73
2018-03-07T03:50:57.122Z,50.70
2018-03-07T03:53:25.539Z,57.23
2018-03-07T03:55:53.234Z,52.00
2018-03-07T03:58:20.887Z,55.00
2018-03-07T04:00:48.587Z,43.90
2018-03-07T04:03:16.239Z,49.50
2018-03-07T04:05:44.712Z,49.47
2018-03-07T04:08:13.136Z,49.03
2018-03-07T04:10:40.836Z,52.57
2018-03-07T04:13:08.491Z,58.50
2018-03-07T04:15:36.187Z,51.20
2018-03-07T04:18:03.843Z,47.77
2018-03-07T04:20:31.540Z,51.00
2018-03-07T04:22:59.195Z,50.63
2018-03-07T04:25:26.936Z,48.20
2018-03-07T04:27:54.621Z,43.47
2018-03-07T04:30:22.287Z,42.97
2018-03-07T04:32:50.039Z,43.00
2018-03-07T04:35:17.702Z,45.47
2018-03-07T04:37:45.399Z,40.27
2018-03-07T04:40:13.059Z,42.80
2018-03-07T04:42:41.522Z,40.33
2018-03-07T04:45:09.238Z,40.23
2018-03-07T04:47:36.938Z,45.70
2018-03-07T04:50:04.617Z,36.40
2018-03-07T04:52:32.314Z,36.87
2018-03-07T04:54:59.966Z,37.93
2018-03-07T04:57:27.675Z,34.80
2018-03-07T04:59:55.343Z,37.13
2018-03-07T05:02:23.001Z,40.17
2018-03-07T05:04:50.698Z,38.10
2018-03-07T05:07:18.375Z,38.67
2018-03-07T05:09:46.079Z,31.10
2018-03-07T05:12:13.736Z,28.00
2018-03-07T05:14:41.439Z,27.77
2018-03-07T05:17:09.096Z,32.07
2018-03-07T05:19:36.792Z,33.07
2018-03-07T05:22:04.467Z,31.67
2018-03-07T05:24:32.163Z,34.13
2018-03-07T05:27:00.578Z,31.33
2018-03-07T05:29:28.287Z,32.33
2018-03-07T05:31:55.939Z,26.70
2018-03-07T05:34:23.644Z,32.80
2018-03-07T05:36:51.303Z,32.37
2018-03-07T05:39:18.955Z,34.50
2018-03-07T05:41:46.656Z,30.30
2018-03-07T05:44:14.325Z,33.20
2018-03-07T05:46:42.032Z,32.30
2018-03-07T05:49:09.683Z,30.73
2018-03-07T05:51:38.141Z,34.60
2018-03-07T05:54:05.803Z,29.80
2018-03-07T05:56:34.275Z,28.23
2018-03-07T05:59:01.939Z,29.40
2018-03-07T06:01:30.411Z,35.40
2018-03-07T06:03:58.068Z,37.33
2018-03-07T06:06:25.768Z,40.30
2018-03-07T06:08:55.117Z,43.83
2018-03-07T06:11:22.819Z,36.60
2018-03-07T06:13:50.482Z,33.77
2018-03-07T06:16:18.142Z,31.67
2018-03-07T06:18:45.839Z,28.40
2018-03-07T06:21:13.507Z,28.90
2018-03-07T06:23:41.208Z,31.33
2018-03-07T06:26:09.631Z,32.87
2018-03-07T06:28:37.338Z,26.13
2018-03-07T06:31:05.772Z,37.83
2018-03-07T06:33:33.484Z,38.00
2018-03-07T06:36:01.906Z,37.47
2018-03-07T06:38:29.606Z,31.23
2018-03-07T06:40:58.034Z,30.90
2018-03-07T06:43:25.748Z,32.80
2018-03-07T06:45:54.175Z,30.43
2018-03-07T06:48:21.874Z,30.37
2018-03-07T06:50:49.543Z,32.73
2018-03-07T06:53:18.015Z,32.10
2018-03-07T06:55:45.678Z,34.27
2018-03-07T06:58:13.377Z,28.93
2018-03-07T07:00:41.041Z,26.50
2018-03-07T07:03:08.747Z,33.60
2018-03-07T07:05:36.420Z,34.20
2018-03-07T07:08:04.897Z,27.43
2018-03-07T07:10:33.335Z,27.70
2018-03-07T07:13:01.032Z,29.10
2018-03-07T07:15:28.695Z,25.10
2018-03-07T07:17:57.158Z,26.67
2018-03-07T07:20:24.827Z,31.50
2018-03-07T07:22:52.539Z,27.90
2018-03-07T07:25:20.198Z,24.90
2018-03-07T07:27:47.896Z,28.67
2018-03-07T07:30:15.551Z,26.83
2018-03-07T07:32:43.245Z,26.67
2018-03-07T07:35:11.667Z,26.90
2018-03-07T07:37:39.322Z,28.47
2018-03-07T07:40:07.019Z,26.40
2018-03-07T07:42:34.671Z,26.13
2018-03-07T07:45:02.375Z,26.23
2018-03-07T07:47:30.031Z,27.87
2018-03-07T07:49:57.771Z,24.63
2018-03-07T07:52:26.243Z,27.30
2018-03-07T07:54:53.942Z,27.27
2018-03-07T07:57:21.604Z,26.67
2018-03-07T07:59:49.302Z,29.60
2018-03-07T08:02:17.048Z,25.77
2018-03-07T08:04:44.754Z,25.63
2018-03-07T08:07:13.190Z,24.17
2018-03-07T08:09:40.900Z,27.70
2018-03-07T08:12:09.325Z,24.43
2018-03-07T08:14:37.027Z,26.90
2018-03-07T08:17:05.452Z,31.53
2018-03-07T08:19:33.160Z,27.73
2018-03-07T08:22:01.582Z,26.00
2018-03-07T08:24:29.284Z,24.77
2018-03-07T08:26:56.935Z,26.87
2018-03-07T08:29:24.636Z,24.03
2018-03-07T08:31:52.296Z,23.87
2018-03-07T08:34:20.785Z,21.17
2018-03-07T08:36:48.445Z,28.87
2018-03-07T08:39:16.147Z,22.70
2018-03-07T08:41:43.807Z,25.60
2018-03-07T08:44:11.503Z,23.17
2018-03-07T08:46:39.931Z,21.90
2018-03-07T08:49:07.624Z,18.47
2018-03-07T08:51:35.282Z,22.03
2018-03-07T08:54:02.975Z,20.93
2018-03-07T08:56:30.627Z,23.47
2018-03-07T08:58:59.104Z,22.50
2018-03-07T09:01:27.599Z,19.67
2018-03-07T09:03:55.307Z,23.90
2018-03-07T09:06:22.971Z,21.30
2018-03-07T09:08:50.663Z,19.73
2018-03-07T09:11:18.322Z,19.83
2018-03-07T09:13:46.791Z,20.90
2018-03-07T09:16:15.217Z,24.43
2018-03-07T09:18:42.917Z,18.97
2018-03-07T09:21:10.579Z,16.70
2018-03-07T09:23:39.047Z,18.70
2018-03-07T09:26:06.710Z,16.80
2018-03-07T09:28:34.422Z,17.63
2018-03-07T09:31:02.074Z,18.40
2018-03-07T09:33:29.774Z,22.60
2018-03-07T09:35:57.448Z,17.80
2018-03-07T09:38:25.150Z,16.30
2018-03-07T09:40:52.806Z,16.23
2018-03-07T09:43:20.509Z,19.80
2018-03-07T09:45:48.933Z,15.20
2018-03-07T09:48:16.644Z,16.73
2018-03-07T09:50:44.311Z,14.43
2018-03-07T09:53:11.975Z,16.07
2018-03-07T09:55:39.676Z,13.20
2018-03-07T09:58:07.327Z,17.90
2018-03-07T10:00:35.863Z,15.70
2018-03-07T10:03:03.525Z,15.27
2018-03-07T10:05:31.228Z,15.47
2018-03-07T10:07:59.651Z,14.87
2018-03-07T10:10:28.159Z,11.03
2018-03-07T10:12:55.816Z,13.20
2018-03-07T10:15:23.512Z,13.07
2018-03-07T10:17:51.192Z,14.70
2018-03-07T10:20:18.895Z,14.13
2018-03-07T10:22:46.587Z,14.60
2018-03-07T10:25:14.297Z,11.13
2018-03-07T10:27:41.951Z,10.90
2018-03-07T10:30:09.659Z,11.80
2018-03-07T10:32:38.079Z,11.50
2018-03-07T10:35:05.766Z,8.67
2018-03-07T10:37:33.414Z,9.10
2018-03-07T10:40:01.114Z,8.30
2018-03-07T10:42:29.530Z,10.57
2018-03-07T10:44:57.227Z,9.80
2018-03-07T10:47:24.884Z,9.43
2018-03-07T10:49:52.574Z,13.40
2018-03-07T10:52:21.017Z,7.20
2018-03-07T10:54:48.744Z,9.90
2018-03-07T10:57:16.402Z,6.50
2018-03-07T10:59:44.099Z,9.40
2018-03-07T11:02:11.756Z,7.20
2018-03-07T11:04:39.448Z,5.10
2018-03-07T11:07:07.876Z,5.27
2018-03-07T11:09:35.568Z,6.73
2018-03-07T11:12:04.019Z,5.17
2018-03-07T11:14:31.707Z,7.07
2018-03-07T11:17:00.126Z,5.97
2018-03-07T11:19:27.811Z,6.10
2018-03-07T11:21:55.455Z,9.97
2018-03-07T11:24:23.163Z,4.70
2018-03-07T11:26:51.588Z,5.20
2018-03-07T11:29:19.287Z,5.27
2018-03-07T11:31:46.947Z,4.57
2018-03-07T11:34:14.647Z,4.00
2018-03-07T11:36:42.299Z,4.20
2018-03-07T11:39:10.778Z,5.70
2018-03-07T11:41:38.447Z,4.97
2018-03-07T11:44:06.135Z,4.40
2018-03-07T11:46:33.787Z,5.27
2018-03-07T11:49:01.491Z,5.90
2018-03-07T11:51:29.192Z,3.83
2018-03-07T11:53:56.882Z,4.20
2018-03-07T11:56:24.537Z,5.10
2018-03-07T11:58:52.231Z,4.00
2018-03-07T12:01:19.883Z,4.33
2018-03-07T12:03:47.584Z,3.60
2018-03-07T12:06:15.277Z,5.23
2018-03-07T12:08:42.930Z,3.93
2018-03-07T12:11:10.619Z,3.20
2018-03-07T12:13:38.282Z,3.17
2018-03-07T12:16:05.977Z,3.13
2018-03-07T12:18:33.628Z,3.30
2018-03-07T12:21:02.088Z,3.53
2018-03-07T12:23:29.740Z,4.20
2018-03-07T12:25:57.467Z,3.40
2018-03-07T12:28:25.126Z,3.90
2018-03-07T12:30:52.826Z,2.30
2018-03-07T12:33:20.487Z,1.77
2018-03-07T12:35:48.187Z,1.87
2018-03-07T12:38:15.872Z,2.40
2018-03-07T12:40:43.568Z,2.20
2018-03-07T12:43:12.349Z,1.93
2018-03-07T12:45:40.055Z,2.43
2018-03-07T12:48:07.718Z,1.80
2018-03-07T12:50:35.420Z,2.27
2018-03-07T12:53:03.070Z,2.90
2018-03-07T12:55:30.772Z,2.33
2018-03-07T12:57:58.428Z,2.33
2018-03-07T13:00:26.887Z,2.43
2018-03-07T13:02:54.559Z,2.10
2018-03-07T13:05:23.020Z,2.20
2018-03-07T13:07:50.707Z,5.23
2018-03-07T13:10:18.394Z,5.13
2018-03-07T13:12:46.059Z,1.70
2018-03-07T13:15:13.747Z,2.13
2018-03-07T13:17:41.418Z,1.70
2018-03-07T13:20:09.128Z,3.30
2018-03-07T13:22:36.788Z,2.93
2018-03-07T13:25:04.496Z,2.10
2018-03-07T13:27:32.155Z,2.87
2018-03-07T13:29:59.942Z,1.73
2018-03-07T13:32:28.359Z,2.40
2018-03-07T13:34:56.043Z,1.53
2018-03-07T13:37:23.746Z,2.07
2018-03-07T13:39:51.443Z,2.57
2018-03-07T13:42:19.094Z,2.07
2018-03-07T13:44:46.799Z,1.97
2018-03-07T13:47:14.465Z,2.97
2018-03-07T13:49:42.928Z,2.67
2018-03-07T13:52:10.583Z,1.80
2018-03-07T13:54:38.275Z,2.33
2018-03-07T13:57:06.700Z,1.63
2018-03-07T13:59:34.395Z,1.57
2018-03-07T14:02:02.052Z,1.87
2018-03-07T14:04:29.746Z,2.00
2018-03-07T14:06:57.439Z,3.70
2018-03-07T14:09:25.135Z,3.20
2018-03-07T14:11:52.788Z,1.20
2018-03-07T14:14:20.491Z,1.50
2018-03-07T14:16:48.144Z,2.57
2018-03-07T14:19:15.809Z,1.77
2018-03-07T14:21:43.521Z,1.93
2018-03-07T14:24:11.182Z,1.90
2018-03-07T14:26:38.936Z,1.70
2018-03-07T14:29:06.592Z,4.33
2018-03-07T14:31:34.284Z,3.03
2018-03-07T14:34:02.708Z,3.53
2018-03-07T14:36:30.394Z,2.80
2018-03-07T14:38:58.038Z,1.43
2018-03-07T14:41:25.750Z,2.00
2018-03-07T14:43:53.403Z,2.03
2018-03-07T14:46:21.871Z,96.67
2018-03-07T14:48:50.291Z,2.17
2018-03-07T14:51:17.988Z,3.23
2018-03-07T14:53:45.653Z,2.13
2018-03-07T14:56:13.347Z,2.23
2018-03-07T14:58:41.008Z,1.57
2018-03-07T15:01:08.699Z,3.23
2018-03-07T15:03:36.352Z,2.50
2018-03-07T15:06:04.064Z,8.90
2018-03-07T15:08:32.474Z,2.33
2018-03-07T15:11:00.171Z,3.00
2018-03-07T15:13:27.820Z,3.60
2018-03-07T15:15:55.519Z,9.47
2018-03-07T15:18:23.944Z,3.37
2018-03-07T15:20:51.635Z,3.20
2018-03-07T15:23:19.292Z,12.57
2018-03-07T15:25:47.004Z,7.43
2018-03-07T15:28:14.660Z,4.10
2018-03-07T15:30:42.358Z,4.10
2018-03-07T15:33:10.789Z,7.73
2018-03-07T15:35:38.483Z,4.37
2018-03-07T15:38:06.190Z,4.33
2018-03-07T15:40:33.904Z,1.40
2018-03-07T15:43:01.571Z,2.37
2018-03-07T15:45:29.263Z,1.70
2018-03-07T15:47:56.930Z,3.57
2018-03-07T15:50:24.632Z,1.73
2018-03-07T15:52:52.291Z,1.57
2018-03-07T15:55:20.000Z,3.67
2018-03-07T15:57:47.653Z,2.47
2018-03-07T16:00:15.372Z,1.67
2018-03-07T16:02:43.019Z,1.40
2018-03-07T16:05:10.711Z,1.90
2018-03-07T16:07:38.371Z,1.33
2018-03-07T16:10:06.080Z,1.57
2018-03-07T16:12:34.517Z,1.93
2018-03-07T16:15:02.207Z,2.60
2018-03-07T16:17:30.628Z,2.80
2018-03-07T16:19:58.359Z,3.00
2018-03-07T16:22:26.775Z,2.60
2018-03-07T16:24:54.473Z,1.50
2018-03-07T16:27:22.144Z,10.70
2018-03-07T16:29:50.566Z,3.87
2018-03-07T16:32:18.268Z,2.83
2018-03-07T16:34:45.947Z,5.27
2018-03-07T16:37:14.403Z,4.60
2018-03-07T16:39:42.075Z,1.87
2018-03-07T16:42:09.766Z,2.17
2018-03-07T16:44:37.416Z,2.90
2018-03-07T16:47:05.123Z,2.40
2018-03-07T16:49:32.770Z,2.70
2018-03-07T16:52:00.470Z,2.10
2018-03-07T16:54:28.147Z,4.03
2018-03-07T16:56:56.637Z,2.70
2018-03-07T16:59:24.861Z,5.50
2018-03-07T17:01:52.555Z,4.00
2018-03-07T17:04:20.982Z,2.00
2018-03-07T17:06:48.669Z,1.40
2018-03-07T17:09:16.327Z,3.37
2018-03-07T17:11:44.020Z,2.43
2018-03-07T17:14:12.434Z,1.70
2018-03-07T17:16:40.146Z,3.90
2018-03-07T17:19:08.568Z,2.03
2018-03-07T17:21:36.267Z,1.43
2018-03-07T17:24:03.955Z,1.70
2018-03-07T17:26:32.421Z,1.67
2018-03-07T17:29:00.839Z,2.77
2018-03-07T17:31:28.539Z,3.20
2018-03-07T17:33:56.191Z,2.70
2018-03-07T17:36:23.891Z,3.47
2018-03-07T17:38:52.302Z,4.20
2018-03-07T17:41:19.990Z,4.40
2018-03-07T17:43:47.655Z,3.17
2018-03-07T17:46:15.360Z,5.90
2018-03-07T17:48:43.016Z,2.23
2018-03-07T17:51:10.703Z,2.00
2018-03-07T17:53:38.356Z,2.87
2018-03-07T17:56:06.091Z,3.10
2018-03-07T17:58:33.776Z,6.80
2018-03-07T18:01:01.486Z,2.63
2018-03-07T18:03:29.915Z,2.40
2018-03-07T18:05:57.615Z,2.90
2018-03-07T18:08:25.274Z,3.00
2018-03-07T18:10:52.963Z,3.20
2018-03-07T18:13:20.654Z,3.03
2018-03-07T18:15:48.466Z,3.87
2018-03-07T18:18:16.934Z,3.00
2018-03-07T18:20:44.603Z,4.17
2018-03-07T18:23:12.300Z,2.90
2018-03-07T18:25:39.956Z,3.33
2018-03-07T18:28:07.679Z,3.40
2018-03-07T18:30:35.398Z,2.53
2018-03-07T18:33:03.674Z,2.80
2018-03-07T18:35:33.102Z,3.80
2018-03-07T18:38:04.111Z,3.20
2018-03-07T18:40:32.603Z,7.43
2018-03-07T18:43:02.639Z,3.07
2018-03-07T18:45:32.776Z,2.93
2018-03-07T18:48:00.656Z,3.27
2018-03-07T18:50:28.307Z,3.60
2018-03-07T18:52:56.815Z,3.00
2018-03-07T18:55:24.515Z,3.50
2018-03-07T18:57:52.165Z,3.10
2018-03-07T19:00:19.860Z,3.23
2018-03-07T19:02:48.278Z,2.90
2018-03-07T19:05:15.981Z,2.20
2018-03-07T19:07:43.648Z,2.50
2018-03-07T19:10:12.106Z,5.73
2018-03-07T19:12:39.764Z,2.70
2018-03-07T19:15:07.483Z,3.17
2018-03-07T19:17:35.141Z,3.17
2018-03-07T19:20:02.856Z,3.23
2018-03-07T19:22:30.524Z,3.30
2018-03-07T19:24:58.992Z,2.53
2018-03-07T19:27:26.771Z,2.97
2018-03-07T19:29:55.232Z,3.53
2018-03-07T19:32:22.891Z,3.33
2018-03-07T19:34:50.592Z,2.43
2018-03-07T19:37:18.240Z,4.23
2018-03-07T19:39:45.935Z,3.80
2018-03-07T19:42:13.582Z,2.77
2018-03-07T19:44:41.283Z,3.93
2018-03-07T19:47:08.944Z,4.13
2018-03-07T19:49:36.615Z,3.70
2018-03-07T19:52:04.358Z,4.77
2018-03-07T19:54:32.036Z,6.17
2018-03-07T19:56:59.734Z,10.00
2018-03-07T19:59:27.391Z,5.47
2018-03-07T20:01:55.099Z,5.33
2018-03-07T20:04:22.772Z,5.63
2018-03-07T20:06:50.463Z,5.43
2018-03-07T20:09:18.112Z,4.77
2018-03-07T20:11:46.609Z,6.37
2018-03-07T20:14:14.270Z,4.20
2018-03-07T20:16:41.983Z,5.13
2018-03-07T20:19:09.632Z,8.70
2018-03-07T20:21:37.334Z,5.97
2018-03-07T20:24:05.749Z,5.57
2018-03-07T20:26:33.452Z,6.40
2018-03-07T20:29:01.308Z,6.50
2018-03-07T20:31:29.004Z,7.10
2018-03-07T20:33:56.696Z,5.97
2018-03-07T20:36:24.434Z,8.17
2018-03-07T20:38:52.099Z,6.60
2018-03-07T20:41:19.836Z,6.57
2018-03-07T20:43:47.529Z,6.90
2018-03-07T20:46:15.225Z,7.80
2018-03-07T20:48:42.875Z,6.60
2018-03-07T20:51:10.580Z,11.13
2018-03-07T20:53:38.231Z,6.70
2018-03-07T20:56:06.727Z,5.60
2018-03-07T20:58:34.420Z,5.00
2018-03-07T21:01:02.915Z,5.30
2018-03-07T21:03:30.576Z,4.90
2018-03-07T21:05:58.241Z,5.47
2018-03-07T21:08:25.930Z,4.10
2018-03-07T21:10:54.339Z,4.90
2018-03-07T21:13:22.031Z,4.03
2018-03-07T21:15:49.685Z,3.20
2018-03-07T21:18:17.387Z,3.27
2018-03-07T21:20:45.811Z,3.83
2018-03-07T21:23:13.540Z,3.60
2018-03-07T21:25:41.199Z,2.90
2018-03-07T21:28:08.895Z,4.43
2018-03-07T21:30:36.547Z,5.17
2018-03-07T21:33:04.235Z,3.70
2018-03-07T21:35:31.883Z,4.80
2018-03-07T21:37:59.583Z,6.33
2018-03-07T21:40:27.230Z,5.13
2018-03-07T21:42:55.693Z,5.27
2018-03-07T21:45:23.335Z,4.73
2018-03-07T21:47:51.026Z,6.80
2018-03-07T21:50:19.433Z,5.00
2018-03-07T21:52:47.136Z,4.20
2018-03-07T21:55:14.784Z,4.40
2018-03-07T21:57:42.496Z,5.03
2018-03-07T22:00:10.146Z,4.80
2018-03-07T22:02:38.611Z,4.43
2018-03-07T22:05:06.269Z,6.47
2018-03-07T22:07:34.003Z,6.43
2018-03-07T22:10:01.668Z,5.40
2018-03-07T22:12:29.359Z,4.43
2018-03-07T22:14:57.788Z,5.60
2018-03-07T22:17:25.491Z,4.23
2018-03-07T22:19:53.912Z,5.10
2018-03-07T22:22:21.612Z,5.20
2018-03-07T22:24:49.288Z,6.80
2018-03-07T22:27:17.746Z,6.97
2018-03-07T22:29:45.401Z,6.80
2018-03-07T22:32:13.138Z,6.93
2018-03-07T22:34:40.807Z,7.93
2018-03-07T22:37:08.511Z,7.07
2018-03-07T22:39:36.928Z,9.60
2018-03-07T22:42:04.632Z,7.23
2018-03-07T22:44:32.295Z,7.30
2018-03-07T22:47:00.759Z,6.23
2018-03-07T22:49:28.410Z,5.60
2018-03-07T22:51:56.099Z,5.30
2018-03-07T22:54:23.798Z,5.00
2018-03-07T22:56:51.491Z,5.67
2018-03-07T22:59:19.142Z,5.43
2018-03-07T23:01:46.839Z,6.10
2018-03-07T23:04:15.264Z,8.10
2018-03-07T23:06:42.950Z,6.50
2018-03-07T23:09:10.590Z,6.70
2018-03-07T23:11:38.287Z,6.97
2018-03-07T23:14:05.947Z,8.70
2018-03-07T23:16:33.606Z,7.90
2018-03-07T23:19:01.309Z,7.13
2018-03-07T23:21:28.959Z,9.57
2018-03-07T23:23:56.652Z,10.27
2018-03-07T23:26:24.317Z,10.07
2018-03-07T23:28:52.036Z,11.20
2018-03-07T23:31:19.743Z,14.47
2018-03-07T23:33:47.443Z,13.40
2018-03-07T23:36:15.860Z,11.90
2018-03-07T23:38:43.556Z,12.27
2018-03-07T23:41:11.222Z,13.03
2018-03-07T23:43:38.918Z,13.57
2018-03-07T23:46:06.566Z,10.67
2018-03-07T23:48:34.262Z,10.93
2018-03-07T23:51:01.914Z,11.87
2018-03-07T23:53:29.606Z,10.30
2018-03-07T23:55:57.269Z,10.40
2018-03-07T23:58:24.954Z,9.43
